createdAt,value
2022-12-24T00:02:43.922Z,49.42
2022-12-24T00:05:32.692Z,49.76
2022-12-24T00:08:21.503Z,49.71
2022-12-24T00:11:11.750Z,49.89
2022-12-24T00:14:00.477Z,49.89
2022-12-24T00:16:49.145Z,49.95
2022-12-24T00:19:37.817Z,49.95
2022-12-24T00:22:26.432Z,50.73
2022-12-24T00:25:15.037Z,49.95
2022-12-24T00:28:05.242Z,50.14
2022-12-24T00:30:53.908Z,50.57
2022-12-24T00:33:42.529Z,50.22
2022-12-24T00:36:31.163Z,50.31
2022-12-24T00:39:20.336Z,50.26
2022-12-24T00:42:09.063Z,50.11
2022-12-24T00:44:59.097Z,50.68
2022-12-24T00:47:47.750Z,50.43
2022-12-24T00:50:36.450Z,50.53
2022-12-24T00:53:26.293Z,50.44
2022-12-24T00:56:14.923Z,50.58
2022-12-24T00:59:03.697Z,50.85
2022-12-24T01:01:53.836Z,50.82
2022-12-24T01:05:00.406Z,50.79
2022-12-24T01:07:49.529Z,50.85
2022-12-24T01:10:38.188Z,50.92
2022-12-24T01:13:27.246Z,50.83
2022-12-24T01:16:18.280Z,50.87
2022-12-24T01:19:08.486Z,50.90
2022-12-24T01:21:57.740Z,51.07
2022-12-24T01:24:46.573Z,50.93
2022-12-24T01:27:35.267Z,50.99
2022-12-24T01:30:23.996Z,50.53
2022-12-24T01:33:12.680Z,50.55
2022-12-24T01:36:05.610Z,51.00
2022-12-24T01:38:54.190Z,51.11
2022-12-24T01:42:00.391Z,50.86
2022-12-24T01:44:50.723Z,50.97
2022-12-24T01:47:39.379Z,50.85
2022-12-24T01:50:28.224Z,50.69
2022-12-24T01:53:18.341Z,50.71
2022-12-24T01:56:08.591Z,50.58
2022-12-24T01:58:59.992Z,50.71
2022-12-24T02:01:48.976Z,50.62
2022-12-24T02:04:39.954Z,50.78
2022-12-24T02:07:28.781Z,50.67
2022-12-24T02:10:19.239Z,51.11
2022-12-24T02:13:10.142Z,50.64
2022-12-24T02:16:08.840Z,50.87
2022-12-24T02:19:01.947Z,50.95
2022-12-24T02:21:56.032Z,51.02
2022-12-24T02:25:20.847Z,51.15
2022-12-24T02:28:18.632Z,51.04
2022-12-24T02:31:12.424Z,51.15
2022-12-24T02:34:05.985Z,51.17
2022-12-24T02:36:57.751Z,50.98
2022-12-24T02:39:49.070Z,51.46
2022-12-24T02:42:40.027Z,51.06
2022-12-24T02:45:31.173Z,51.47
2022-12-24T02:48:22.810Z,51.37
2022-12-24T02:51:12.758Z,51.27
2022-12-24T02:54:01.421Z,51.09
2022-12-24T02:57:06.396Z,51.36
2022-12-24T03:00:05.473Z,51.51
2022-12-24T03:03:09.719Z,51.22
2022-12-24T03:06:03.536Z,51.30
2022-12-24T03:08:56.744Z,51.27
2022-12-24T03:11:50.248Z,51.54
2022-12-24T03:14:40.082Z,51.13
2022-12-24T03:17:28.960Z,51.23
2022-12-24T03:20:20.952Z,51.69
2022-12-24T03:23:12.809Z,51.28
2022-12-24T03:26:02.359Z,51.46
2022-12-24T03:28:51.507Z,51.39
2022-12-24T03:31:45.157Z,51.45
2022-12-24T03:34:34.014Z,51.14
2022-12-24T03:37:22.816Z,51.23
2022-12-24T03:40:13.696Z,51.28
2022-12-24T03:43:02.502Z,50.97
2022-12-24T03:45:51.244Z,51.38
2022-12-24T03:48:39.882Z,51.33
2022-12-24T03:51:29.484Z,51.63
2022-12-24T03:54:18.162Z,51.72
2022-12-24T03:57:08.347Z,51.46
2022-12-24T03:59:57.002Z,51.54
2022-12-24T04:02:45.794Z,51.68
2022-12-24T04:05:34.721Z,51.42
2022-12-24T04:08:23.816Z,51.55
2022-12-24T04:11:13.910Z,51.36
2022-12-24T04:14:04.012Z,51.62
2022-12-24T04:16:52.717Z,51.64
2022-12-24T04:19:41.404Z,51.28
2022-12-24T04:22:30.066Z,51.67
2022-12-24T04:25:18.804Z,51.50
2022-12-24T04:28:07.445Z,51.71
2022-12-24T04:31:01.007Z,51.38
2022-12-24T04:36:38.037Z,51.67
2022-12-24T04:39:26.671Z,51.48
2022-12-24T04:42:15.299Z,51.93
2022-12-24T04:45:03.952Z,51.95
2022-12-24T04:47:54.040Z,51.76
2022-12-24T04:50:42.684Z,51.80
2022-12-24T04:53:31.502Z,51.92
2022-12-24T04:56:22.167Z,51.97
2022-12-24T04:59:10.853Z,51.79
2022-12-24T05:01:59.695Z,51.70
2022-12-24T05:04:49.744Z,51.58
2022-12-24T05:07:38.689Z,51.37
2022-12-24T05:10:27.249Z,51.45
2022-12-24T05:13:15.906Z,51.62
2022-12-24T05:16:04.575Z,51.32
2022-12-24T05:18:53.536Z,51.13
2022-12-24T05:21:43.566Z,51.39
2022-12-24T05:24:49.814Z,51.30
2022-12-24T05:27:38.538Z,51.09
2022-12-24T05:30:27.155Z,51.23
2022-12-24T05:33:16.009Z,51.32
2022-12-24T05:36:04.736Z,51.39
2022-12-24T05:38:54.760Z,51.32
2022-12-24T05:41:43.530Z,51.40
2022-12-24T05:44:32.213Z,51.35
2022-12-24T05:47:21.105Z,51.26
2022-12-24T05:50:11.285Z,51.39
2022-12-24T05:52:59.985Z,51.31
2022-12-24T05:55:50.174Z,51.77
2022-12-24T05:58:39.258Z,51.73
2022-12-24T06:01:28.422Z,51.40
2022-12-24T06:04:18.574Z,51.96
2022-12-24T06:07:10.395Z,51.61
2022-12-24T06:09:59.089Z,51.54
2022-12-24T06:12:49.146Z,51.50
2022-12-24T06:15:37.934Z,51.86
2022-12-24T06:18:26.890Z,51.64
2022-12-24T06:21:15.639Z,51.67
2022-12-24T06:24:04.242Z,51.17
2022-12-24T06:26:52.821Z,51.33
2022-12-24T06:29:42.711Z,51.61
2022-12-24T06:32:31.418Z,51.68
2022-12-24T06:35:21.112Z,51.57
2022-12-24T06:38:09.803Z,51.73
2022-12-24T06:40:58.655Z,51.61
2022-12-24T06:43:48.021Z,51.52
2022-12-24T06:46:38.234Z,51.71
2022-12-24T06:49:26.972Z,51.57
2022-12-24T06:52:16.352Z,51.55
2022-12-24T06:55:05.192Z,51.36
2022-12-24T06:57:53.947Z,51.48
2022-12-24T07:00:42.632Z,51.15
2022-12-24T07:03:33.349Z,51.32
2022-12-24T07:06:26.084Z,51.61
2022-12-24T07:09:15.501Z,51.85
2022-12-24T07:12:05.968Z,51.47
2022-12-24T07:14:54.558Z,51.55
2022-12-24T07:17:43.531Z,51.38
2022-12-24T07:20:33.655Z,51.45
2022-12-24T07:23:22.421Z,50.95
2022-12-24T07:26:12.679Z,51.20
2022-12-24T07:29:01.331Z,51.17
2022-12-24T07:31:50.187Z,51.28
2022-12-24T07:34:39.759Z,51.10
2022-12-24T07:37:29.794Z,50.81
2022-12-24T07:40:21.363Z,51.21
2022-12-24T07:43:10.053Z,51.33
2022-12-24T07:45:59.154Z,51.15
2022-12-24T07:48:47.900Z,51.14
2022-12-24T07:51:36.593Z,51.44
2022-12-24T07:54:26.766Z,47.93
2022-12-24T07:57:17.558Z,39.82
2022-12-24T08:00:07.516Z,40.96
2022-12-24T08:02:56.314Z,42.02
2022-12-24T08:05:45.019Z,41.69
2022-12-24T08:08:33.593Z,40.95
2022-12-24T08:11:23.711Z,40.82
2022-12-24T08:14:12.355Z,39.87
2022-12-24T08:17:01.116Z,40.48
2022-12-24T08:19:49.792Z,40.36
2022-12-24T08:22:38.515Z,40.73
2022-12-24T08:25:27.189Z,40.12
2022-12-24T08:28:19.143Z,40.05
2022-12-24T08:31:08.418Z,40.28
2022-12-24T08:33:57.239Z,40.29
2022-12-24T08:36:45.965Z,40.17
2022-12-24T08:39:34.710Z,39.56
2022-12-24T08:42:23.546Z,39.69
2022-12-24T08:45:14.014Z,39.37
2022-12-24T08:48:02.711Z,39.78
2022-12-24T08:50:51.345Z,39.66
2022-12-24T08:53:40.080Z,39.60
2022-12-24T08:56:28.734Z,39.46
2022-12-24T08:59:17.465Z,39.55
2022-12-24T09:02:07.796Z,39.18
2022-12-24T09:04:56.663Z,38.77
2022-12-24T09:07:45.548Z,39.38
2022-12-24T09:10:34.223Z,39.15
2022-12-24T09:13:22.865Z,39.00
2022-12-24T09:16:14.013Z,39.27
2022-12-24T09:19:04.195Z,38.74
2022-12-24T09:21:52.981Z,38.41
2022-12-24T09:24:41.712Z,38.10
2022-12-24T09:27:32.002Z,38.20
2022-12-24T09:30:20.944Z,37.50
2022-12-24T09:33:09.630Z,37.37
2022-12-24T09:35:59.740Z,37.30
2022-12-24T09:38:48.776Z,36.86
2022-12-24T09:41:47.623Z,36.92
2022-12-24T09:44:40.701Z,36.75
2022-12-24T09:47:31.638Z,36.27
2022-12-24T09:50:32.539Z,36.00
2022-12-24T09:53:26.612Z,36.24
2022-12-24T09:56:18.938Z,36.43
2022-12-24T09:59:09.816Z,36.17
2022-12-24T10:01:58.602Z,36.31
2022-12-24T10:04:48.599Z,36.14
2022-12-24T10:07:44.108Z,36.27
2022-12-24T10:10:39.714Z,36.15
2022-12-24T10:13:39.581Z,36.76
2022-12-24T10:16:33.552Z,37.20
2022-12-24T10:19:26.311Z,37.16
2022-12-24T10:22:27.528Z,37.21
2022-12-24T10:25:20.109Z,36.99
2022-12-24T10:28:20.821Z,37.01
2022-12-24T10:31:10.063Z,36.97
2022-12-24T10:34:02.152Z,37.02
2022-12-24T10:36:50.917Z,37.75
2022-12-24T10:39:39.587Z,38.32
2022-12-24T10:42:35.727Z,38.25
2022-12-24T10:45:27.355Z,38.19
2022-12-24T10:48:24.568Z,37.05
2022-12-24T10:51:16.118Z,36.80
2022-12-24T10:54:10.390Z,36.48
2022-12-24T10:57:00.884Z,36.56
2022-12-24T10:59:53.037Z,36.45
2022-12-24T11:02:43.330Z,36.34
2022-12-24T11:05:33.868Z,36.68
2022-12-24T11:08:22.660Z,36.42
2022-12-24T11:11:13.524Z,36.58
2022-12-24T11:14:02.082Z,36.29
2022-12-24T11:16:53.663Z,36.01
2022-12-24T11:19:49.200Z,36.36
2022-12-24T11:22:38.005Z,36.09
2022-12-24T11:25:29.356Z,36.59
2022-12-24T11:28:23.179Z,36.25
2022-12-24T11:31:21.521Z,36.30
2022-12-24T11:34:24.532Z,36.46
2022-12-24T11:37:18.650Z,36.44
2022-12-24T11:40:10.495Z,37.01
2022-12-24T11:43:01.423Z,36.85
2022-12-24T11:45:51.955Z,36.55
2022-12-24T11:48:40.629Z,37.04
2022-12-24T11:51:29.381Z,36.88
2022-12-24T11:54:24.723Z,37.25
2022-12-24T11:57:25.146Z,37.50
2022-12-24T12:00:14.625Z,37.82
2022-12-24T12:03:04.204Z,38.27
2022-12-24T12:05:53.864Z,38.50
2022-12-24T12:08:42.851Z,38.76
2022-12-24T12:11:34.272Z,39.69
2022-12-24T12:14:25.416Z,39.58
2022-12-24T12:17:21.693Z,39.58
2022-12-24T12:20:14.198Z,39.92
2022-12-24T12:23:05.798Z,39.71
2022-12-24T12:25:57.178Z,39.74
2022-12-24T12:28:49.575Z,39.62
2022-12-24T12:31:42.086Z,39.53
2022-12-24T12:34:34.215Z,39.21
2022-12-24T12:37:26.677Z,39.16
2022-12-24T12:40:16.619Z,39.06
2022-12-24T12:43:14.593Z,38.39
2022-12-24T12:46:09.872Z,38.67
2022-12-24T12:49:10.325Z,39.16
2022-12-24T12:52:03.792Z,39.10
2022-12-24T12:55:05.914Z,39.28
2022-12-24T12:57:58.052Z,39.65
2022-12-24T13:00:49.270Z,39.70
2022-12-24T13:04:33.633Z,39.78
2022-12-24T13:08:00.979Z,39.77
2022-12-24T13:11:02.971Z,39.67
2022-12-24T13:14:08.922Z,40.32
2022-12-24T13:17:35.642Z,40.62
2022-12-24T13:20:29.653Z,40.82
2022-12-24T13:23:20.933Z,40.16
2022-12-24T13:26:13.328Z,40.43
2022-12-24T13:29:32.671Z,40.32
2022-12-24T13:32:49.583Z,40.09
2022-12-24T13:35:41.070Z,40.19
2022-12-24T13:38:43.369Z,39.95
2022-12-24T13:41:58.979Z,39.88
2022-12-24T13:44:47.641Z,39.42
2022-12-24T13:47:36.301Z,39.83
2022-12-24T13:50:30.051Z,39.68
2022-12-24T13:53:28.681Z,39.62
2022-12-24T13:56:24.316Z,39.44
2022-12-24T13:59:21.900Z,39.51
2022-12-24T14:02:20.068Z,39.53
2022-12-24T14:05:21.418Z,39.54
2022-12-24T14:08:12.517Z,39.97
2022-12-24T14:11:10.074Z,40.28
2022-12-24T14:14:28.710Z,40.23
2022-12-24T14:17:23.999Z,40.41
2022-12-24T14:20:12.740Z,40.25
2022-12-24T14:23:01.473Z,40.15
2022-12-24T14:25:50.783Z,40.06
2022-12-24T14:28:44.790Z,39.78
2022-12-24T14:31:33.532Z,40.32
2022-12-24T14:34:22.649Z,40.30
2022-12-24T14:37:12.508Z,40.40
2022-12-24T14:40:01.549Z,40.38
2022-12-24T14:42:58.108Z,40.61
2022-12-24T14:46:01.450Z,40.31
2022-12-24T14:48:53.963Z,40.52
2022-12-24T14:51:46.047Z,40.40
2022-12-24T14:54:39.938Z,40.24
2022-12-24T14:57:29.279Z,40.39
2022-12-24T15:00:21.513Z,40.68
2022-12-24T15:03:15.353Z,40.64
2022-12-24T15:06:06.514Z,40.93
2022-12-24T15:08:55.405Z,40.90
2022-12-24T15:11:46.017Z,40.32
2022-12-24T15:14:44.336Z,40.21
2022-12-24T15:17:32.971Z,40.08
2022-12-24T15:20:25.990Z,40.57
2022-12-24T15:23:22.537Z,40.81
2022-12-24T15:26:28.149Z,40.61
2022-12-24T15:29:23.633Z,40.47
2022-12-24T15:32:14.720Z,40.37
2022-12-24T15:35:03.499Z,40.35
2022-12-24T15:37:53.572Z,40.49
2022-12-24T15:40:42.767Z,40.49
2022-12-24T15:43:32.214Z,40.89
2022-12-24T15:46:22.436Z,41.34
2022-12-24T15:49:17.030Z,41.18
2022-12-24T15:52:07.428Z,41.63
2022-12-24T15:54:58.559Z,42.37
2022-12-24T15:57:47.350Z,41.76
2022-12-24T16:00:35.958Z,42.00
2022-12-24T16:03:24.685Z,41.81
2022-12-24T16:06:16.548Z,42.16
2022-12-24T16:09:49.045Z,41.73
2022-12-24T16:12:39.059Z,41.87
2022-12-24T16:15:27.881Z,42.43
2022-12-24T16:18:19.230Z,42.32
2022-12-24T16:21:08.737Z,42.55
2022-12-24T16:23:59.005Z,42.69
2022-12-24T16:26:48.039Z,42.84
2022-12-24T16:29:38.027Z,42.31
2022-12-24T16:32:32.624Z,42.75
2022-12-24T16:35:27.182Z,42.71
2022-12-24T16:38:16.630Z,42.65
2022-12-24T16:41:05.440Z,43.00
2022-12-24T16:43:53.117Z,42.82
2022-12-24T16:46:43.248Z,42.74
2022-12-24T16:49:31.936Z,43.26
2022-12-24T16:52:23.157Z,43.05
2022-12-24T16:55:14.529Z,42.89
2022-12-24T16:58:03.178Z,42.83
2022-12-24T17:00:54.175Z,43.19
2022-12-24T17:03:44.374Z,42.96
2022-12-24T17:06:33.044Z,43.29
2022-12-24T17:09:22.061Z,43.62
2022-12-24T17:12:11.283Z,43.87
2022-12-24T17:14:59.892Z,43.61
2022-12-24T17:17:48.511Z,43.17
2022-12-24T17:20:38.527Z,43.36
2022-12-24T17:23:27.312Z,43.04
2022-12-24T17:26:16.665Z,43.89
2022-12-24T17:29:05.647Z,43.79
2022-12-24T17:31:54.304Z,43.70
2022-12-24T17:34:43.018Z,44.04
2022-12-24T17:37:33.039Z,44.16
2022-12-24T17:40:21.814Z,43.34
2022-12-24T17:43:10.829Z,43.01
2022-12-24T17:45:59.518Z,42.79
2022-12-24T17:48:48.282Z,42.41
2022-12-24T17:51:43.178Z,42.26
2022-12-24T17:54:35.161Z,42.62
2022-12-24T17:57:23.811Z,42.21
2022-12-24T18:00:13.725Z,42.08
2022-12-24T18:03:02.444Z,41.91
2022-12-24T18:05:51.976Z,41.63
2022-12-24T18:08:41.106Z,41.89
2022-12-24T18:11:32.890Z,41.77
2022-12-24T18:14:21.858Z,41.15
2022-12-24T18:17:10.488Z,41.57
2022-12-24T18:19:59.199Z,41.26
2022-12-24T18:22:48.225Z,41.20
2022-12-24T18:25:36.802Z,41.83
2022-12-24T18:28:29.993Z,41.38
2022-12-24T18:31:19.873Z,41.27
2022-12-24T18:34:10.366Z,41.45
2022-12-24T18:36:59.112Z,41.79
2022-12-24T18:39:47.798Z,41.93
2022-12-24T18:42:36.631Z,42.03
2022-12-24T18:45:26.586Z,42.03
2022-12-24T18:48:15.214Z,42.55
2022-12-24T18:51:04.104Z,42.32
2022-12-24T18:53:53.003Z,42.38
2022-12-24T18:56:41.704Z,42.53
2022-12-24T18:59:30.418Z,42.67
2022-12-24T19:02:20.514Z,42.79
2022-12-24T19:05:09.679Z,42.93
2022-12-24T19:07:58.958Z,42.85
2022-12-24T19:10:47.674Z,43.53
2022-12-24T19:13:36.439Z,43.15
2022-12-24T19:16:28.315Z,42.97
2022-12-24T19:19:24.233Z,43.46
2022-12-24T19:22:12.834Z,43.99
2022-12-24T19:25:02.226Z,43.27
2022-12-24T19:27:50.954Z,43.10
2022-12-24T19:30:40.811Z,43.01
2022-12-24T19:33:29.494Z,42.84
2022-12-24T19:36:20.701Z,42.86
2022-12-24T19:39:09.426Z,43.15
2022-12-24T19:41:58.209Z,42.95
2022-12-24T19:44:46.881Z,43.19
2022-12-24T19:47:35.443Z,42.94
2022-12-24T19:50:24.497Z,43.06
2022-12-24T19:53:14.471Z,43.07
2022-12-24T19:56:03.513Z,43.03
2022-12-24T19:58:52.199Z,43.22
2022-12-24T20:01:41.001Z,43.17
2022-12-24T20:04:29.708Z,43.21
2022-12-24T20:07:18.287Z,43.43
2022-12-24T20:10:09.741Z,43.20
2022-12-24T20:13:05.558Z,43.16
2022-12-24T20:15:55.672Z,43.42
2022-12-24T20:18:44.475Z,43.50
2022-12-24T20:21:33.432Z,43.77
2022-12-24T20:24:22.323Z,44.35
2022-12-24T20:27:12.465Z,44.23
2022-12-24T20:30:01.081Z,44.04
2022-12-24T20:32:49.944Z,44.08
2022-12-24T20:35:38.936Z,44.50
2022-12-24T20:38:27.569Z,43.93
2022-12-24T20:41:17.803Z,44.15
2022-12-24T20:44:07.945Z,44.02
2022-12-24T20:46:56.611Z,43.96
2022-12-24T20:49:45.245Z,44.37
2022-12-24T20:52:33.864Z,44.19
2022-12-24T20:55:22.831Z,44.16
2022-12-24T20:58:13.648Z,44.03
2022-12-24T21:01:09.903Z,43.90
2022-12-24T21:04:00.250Z,44.36
2022-12-24T21:06:48.857Z,44.34
2022-12-24T21:09:37.625Z,44.49
2022-12-24T21:12:43.848Z,43.92
2022-12-24T21:15:35.828Z,44.08
2022-12-24T21:18:25.948Z,43.91
2022-12-24T21:21:14.560Z,43.82
2022-12-24T21:24:03.252Z,43.86
2022-12-24T21:26:51.924Z,43.83
2022-12-24T21:29:40.599Z,43.94
2022-12-24T21:32:29.232Z,43.70
2022-12-24T21:35:19.484Z,43.59
2022-12-24T21:38:08.104Z,43.51
2022-12-24T21:41:01.428Z,43.70
2022-12-24T21:43:50.003Z,44.05
2022-12-24T21:46:38.676Z,43.67
2022-12-24T21:49:44.907Z,44.10
2022-12-24T21:52:35.037Z,43.84
2022-12-24T21:55:25.694Z,43.49
2022-12-24T21:58:14.370Z,43.86
2022-12-24T22:01:08.356Z,44.13
2022-12-24T22:03:58.090Z,44.11
2022-12-24T22:07:05.531Z,43.54
2022-12-24T22:10:13.436Z,43.78
2022-12-24T22:13:06.061Z,44.23
2022-12-24T22:15:55.434Z,44.41
2022-12-24T22:18:44.149Z,44.88
2022-12-24T22:21:32.764Z,45.09
2022-12-24T22:24:21.672Z,45.14
2022-12-24T22:27:11.682Z,45.00
2022-12-24T22:30:00.303Z,45.11
2022-12-24T22:32:49.117Z,44.71
2022-12-24T22:35:39.329Z,44.83
2022-12-24T22:38:28.331Z,44.86
2022-12-24T22:41:17.238Z,44.76
2022-12-24T22:44:07.390Z,45.08
2022-12-24T22:46:56.017Z,44.79
2022-12-24T22:49:44.823Z,45.04
2022-12-24T22:52:34.256Z,44.69
2022-12-24T22:55:23.118Z,45.21
2022-12-24T22:58:11.854Z,44.95
2022-12-24T23:01:02.519Z,44.76
2022-12-24T23:03:51.427Z,44.94
2022-12-24T23:06:40.782Z,44.91
2022-12-24T23:09:29.506Z,45.20
2022-12-24T23:12:38.622Z,44.71
2022-12-24T23:15:26.347Z,44.31
2022-12-24T23:18:16.878Z,44.88
2022-12-24T23:21:07.509Z,45.43
2022-12-24T23:23:57.950Z,46.25
2022-12-24T23:26:46.594Z,46.51
2022-12-24T23:29:35.618Z,46.84
2022-12-24T23:32:24.244Z,46.21
2022-12-24T23:35:14.338Z,46.43
2022-12-24T23:38:02.955Z,46.50
2022-12-24T23:40:51.590Z,46.36
2022-12-24T23:43:40.528Z,46.23
2022-12-24T23:46:30.219Z,46.25
2022-12-24T23:49:19.012Z,46.26
2022-12-24T23:52:09.614Z,45.77
2022-12-24T23:54:58.224Z,45.97
2022-12-24T23:57:46.920Z,45.71
